Time;durP1;ratioP1;P1;durP2;ratioP2;P2;SDS_P1;SDS_P2;PMS_P1;PMS_P2;Temp;Humidity;BMP_temperature;BMP_pressure;BME280_temperature;BME280_humidity;BME280_pressure;Samples;Min_cycle;Max_cycle;Signal;HPM_P1;HPM_P2
2020/12/16 05:00:20;;;;;;;55.95;17.80;;;7.70;99.90;;;;;;5990528;23;20238;-67
2020/12/16 05:02:52;;;;;;;61.35;18.35;;;7.70;99.90;;;;;;5010322;28;20223;-67
2020/12/16 05:05:19;;;;;;;45.20;16.27;;;7.60;99.90;;;;;;5012283;28;20204;-67
2020/12/16 05:07:48;;;;;;;139.77;19.65;;;7.70;99.90;;;;;;5013052;28;20215;-67
2020/12/16 05:10:15;;;;;;;202.15;23.38;;;7.60;99.90;;;;;;5010964;28;20237;-67
2020/12/16 05:12:42;;;;;;;139.63;21.17;;;7.60;99.90;;;;;;5011711;28;20742;-67
2020/12/16 05:15:23;;;;;;;110.35;19.17;;;7.60;99.90;;;;;;4995873;28;20350;-67
2020/12/16 05:18:04;;;;;;;85.82;18.70;;;7.60;99.90;;;;;;4993191;28;20214;-67
2020/12/16 05:20:30;;;;;;;114.30;20.60;;;7.60;99.90;;;;;;5007270;28;20309;-67
2020/12/16 05:22:59;;;;;;;121.95;20.05;;;7.60;99.90;;;;;;5012149;28;20211;-67
2020/12/16 05:25:25;;;;;;;130.40;22.08;;;7.60;99.90;;;;;;4995732;28;20670;-67
2020/12/16 05:27:52;;;;;;;110.03;19.35;;;7.60;99.90;;;;;;4993092;28;20286;-67
2020/12/16 05:30:18;;;;;;;116.78;19.08;;;7.60;99.90;;;;;;5006555;28;20218;-67
2020/12/16 05:32:45;;;;;;;127.93;20.63;;;7.60;99.90;;;;;;5012353;28;20214;-67
2020/12/16 05:35:26;;;;;;;127.05;20.05;;;7.60;99.90;;;;;;5009946;28;20207;-67
2020/12/16 05:37:59;;;;;;;110.78;19.45;;;7.60;99.90;;;;;;4995147;28;20663;-67
2020/12/16 05:40:26;;;;;;;95.43;19.70;;;7.60;99.90;;;;;;4993379;28;20719;-67
2020/12/16 05:42:52;;;;;;;98.60;20.58;;;7.60;99.90;;;;;;5011691;28;20559;-67
2020/12/16 05:45:20;;;;;;;83.80;19.77;;;7.60;99.90;;;;;;4999038;28;20690;-67
2020/12/16 05:47:59;;;;;;;82.80;20.27;;;7.60;99.90;;;;;;5010741;28;20235;-67
2020/12/16 05:50:29;;;;;;;82.68;20.30;;;7.60;99.90;;;;;;5011677;28;20250;-70
2020/12/16 05:53:14;;;;;;;92.25;20.73;;;7.60;99.90;;;;;;4997282;28;20212;-68
2020/12/16 05:55:41;;;;;;;79.90;19.95;;;7.60;99.90;;;;;;5012290;28;20242;-69
2020/12/16 05:58:12;;;;;;;87.00;21.50;;;7.60;99.90;;;;;;5003204;28;20202;-68
2020/12/16 06:00:55;;;;;;;92.30;23.00;;;7.60;99.90;;;;;;5011585;28;20246;-66
2020/12/16 06:03:25;;;;;;;100.90;22.88;;;7.60;99.90;;;;;;5015939;28;20240;-68
2020/12/16 06:05:53;;;;;;;103.35;25.00;;;7.60;99.90;;;;;;4998088;28;20227;-68
2020/12/16 06:08:21;;;;;;;110.30;25.13;;;7.60;99.90;;;;;;4999266;28;20595;-68
2020/12/16 06:10:50;;;;;;;151.10;25.77;;;7.60;99.90;;;;;;5005051;28;20243;-68
2020/12/16 06:13:18;;;;;;;99.05;24.38;;;7.60;99.90;;;;;;5008208;28;20204;-68
2020/12/16 06:15:51;;;;;;;100.68;26.88;;;7.70;99.90;;;;;;4996086;28;20223;-68
2020/12/16 06:18:18;;;;;;;115.35;28.73;;;7.70;99.90;;;;;;5006420;28;20261;-68
2020/12/16 06:20:46;;;;;;;95.68;26.10;;;7.70;99.90;;;;;;5015396;28;20227;-68
2020/12/16 06:23:21;;;;;;;92.47;26.05;;;7.70;99.90;;;;;;5005060;28;20238;-68
2020/12/16 06:25:49;;;;;;;108.55;26.45;;;7.70;99.90;;;;;;4998305;28;20192;-68
2020/12/16 06:28:16;;;;;;;101.43;27.25;;;7.80;99.90;;;;;;5001007;28;20637;-69
2020/12/16 06:30:53;;;;;;;92.95;26.52;;;7.80;99.90;;;;;;4997912;28;20223;-68
2020/12/16 06:33:36;;;;;;;100.03;27.25;;;7.80;99.90;;;;;;5002296;28;20600;-68
2020/12/16 06:36:05;;;;;;;88.63;26.92;;;7.80;99.90;;;;;;5012574;28;20215;-68
2020/12/16 06:38:40;;;;;;;93.40;24.05;;;7.80;99.90;;;;;;5011680;28;20269;-68
2020/12/16 06:41:11;;;;;;;93.25;26.17;;;7.80;99.90;;;;;;5009649;28;20258;-68
2020/12/16 06:43:39;;;;;;;103.05;28.23;;;7.80;99.90;;;;;;4995038;28;20208;-68
2020/12/16 06:46:24;;;;;;;84.72;24.35;;;7.80;99.90;;;;;;4999164;28;20652;-66
2020/12/16 06:48:50;;;;;;;98.82;25.52;;;7.80;99.90;;;;;;4997914;28;20258;-68
2020/12/16 06:51:19;;;;;;;100.03;26.48;;;7.80;99.90;;;;;;5000692;28;20326;-68
2020/12/16 06:53:46;;;;;;;87.95;25.92;;;7.80;99.90;;;;;;5015078;28;20546;-66
2020/12/16 06:56:17;;;;;;;97.95;28.55;;;7.80;99.90;;;;;;5009777;28;20536;-68
2020/12/16 06:58:43;;;;;;;96.40;26.98;;;7.80;99.90;;;;;;4995189;28;20283;-68
2020/12/16 07:01:15;;;;;;;97.85;28.15;;;7.80;99.90;;;;;;4999933;28;20231;-68
2020/12/16 07:03:42;;;;;;;97.82;27.45;;;7.80;99.90;;;;;;5013494;28;20203;-66
2020/12/16 07:06:11;;;;;;;101.57;26.92;;;7.80;99.90;;;;;;5005598;28;20844;-66
2020/12/16 07:08:38;;;;;;;101.47;28.02;;;7.80;99.90;;;;;;4995625;28;20204;-67
2020/12/16 07:11:05;;;;;;;86.35;27.55;;;7.80;99.90;;;;;;5001889;28;20241;-67
2020/12/16 07:13:33;;;;;;;101.22;27.60;;;7.80;99.90;;;;;;5003902;28;20212;-68
2020/12/16 07:16:02;;;;;;;99.03;28.60;;;7.80;99.90;;;;;;5000943;28;20289;-68
2020/12/16 07:18:45;;;;;;;96.55;26.05;;;7.80;99.90;;;;;;4997078;28;20207;-69
2020/12/16 07:21:25;;;;;;;90.05;27.50;;;7.70;99.90;;;;;;5000658;28;20226;-68
2020/12/16 07:23:59;;;;;;;94.90;26.35;;;7.70;99.90;;;;;;4994791;28;20215;-68
2020/12/16 07:26:27;;;;;;;84.50;25.52;;;7.70;99.90;;;;;;5001951;28;20199;-68
2020/12/16 07:28:54;;;;;;;82.47;25.55;;;7.70;99.90;;;;;;5013161;28;20226;-68
2020/12/16 07:31:20;;;;;;;82.15;23.10;;;7.70;99.90;;;;;;5007974;28;20219;-68
2020/12/16 07:33:47;;;;;;;80.30;25.38;;;7.70;99.90;;;;;;5013488;28;20586;-68
2020/12/16 07:36:16;;;;;;;106.15;32.15;;;7.70;99.90;;;;;;5001884;28;20455;-68
2020/12/16 07:38:54;;;;;;;84.25;26.95;;;7.80;99.90;;;;;;4994660;28;20554;-68
2020/12/16 07:41:26;;;;;;;78.13;24.67;;;7.80;99.90;;;;;;5007322;28;20238;-68
2020/12/16 07:43:52;;;;;;;76.05;24.67;;;7.70;99.90;;;;;;5002930;28;20675;-68
2020/12/16 07:46:20;;;;;;;81.20;25.73;;;7.70;99.90;;;;;;4994313;28;20203;-68
2020/12/16 07:48:46;;;;;;;73.80;25.52;;;7.70;99.90;;;;;;5004066;28;20210;-68
2020/12/16 07:51:13;;;;;;;76.70;24.33;;;7.70;99.90;;;;;;4994137;28;20228;-68
2020/12/16 07:53:45;;;;;;;84.30;25.92;;;7.70;99.90;;;;;;4999871;28;20195;-68
2020/12/16 07:56:14;;;;;;;87.63;26.50;;;7.70;99.90;;;;;;5001127;28;20597;-68
2020/12/16 07:58:40;;;;;;;72.82;23.55;;;7.70;99.90;;;;;;5008528;28;20203;-68
2020/12/16 08:01:07;;;;;;;72.55;25.58;;;7.70;99.90;;;;;;5013980;28;20242;-68
2020/12/16 08:03:35;;;;;;;76.07;26.02;;;7.70;99.90;;;;;;5009730;28;20227;-68
2020/12/16 08:06:01;;;;;;;77.90;25.05;;;7.70;99.90;;;;;;4999576;28;20199;-69
2020/12/16 08:08:27;;;;;;;66.28;24.23;;;7.60;99.90;;;;;;5003151;28;20570;-67
2020/12/16 08:10:54;;;;;;;77.35;24.17;;;7.60;99.90;;;;;;5013689;28;20254;-68
2020/12/16 08:13:22;;;;;;;72.55;24.60;;;7.60;99.90;;;;;;4994212;28;20204;-69
2020/12/16 08:15:48;;;;;;;81.13;24.40;;;7.50;99.90;;;;;;4996652;28;20200;-68
2020/12/16 08:18:16;;;;;;;78.70;24.80;;;7.50;99.90;;;;;;4998202;28;20219;-70
2020/12/16 08:20:43;;;;;;;81.85;28.17;;;7.50;99.90;;;;;;4999003;28;20262;-67
2020/12/16 08:23:12;;;;;;;82.97;24.75;;;7.50;99.90;;;;;;4998592;28;20246;-67
2020/12/16 08:25:39;;;;;;;82.95;25.55;;;7.50;99.90;;;;;;4999530;28;20234;-67
2020/12/16 08:28:05;;;;;;;70.03;25.23;;;7.50;99.90;;;;;;5000014;28;20660;-69
2020/12/16 08:30:33;;;;;;;85.30;25.63;;;7.50;99.90;;;;;;5002324;28;20234;-68
2020/12/16 08:33:01;;;;;;;71.22;24.92;;;7.50;99.90;;;;;;4999702;28;20218;-68
2020/12/16 08:35:30;;;;;;;71.70;27.50;;;7.50;99.90;;;;;;5006480;28;20215;-68
2020/12/16 08:38:03;;;;;;;73.20;26.42;;;7.50;99.90;;;;;;4996054;28;20238;-68
2020/12/16 08:40:31;;;;;;;77.05;24.92;;;7.50;99.90;;;;;;5002276;28;20232;-68
2020/12/16 08:43:19;;;;;;;79.47;24.00;;;7.50;99.90;;;;;;4993470;28;20211;-68
2020/12/16 08:45:46;;;;;;;75.05;24.15;;;7.60;99.90;;;;;;4993563;28;20231;-68
2020/12/16 08:48:13;;;;;;;68.00;22.08;;;7.60;99.90;;;;;;5006886;28;20214;-68
2020/12/16 08:50:39;;;;;;;72.05;24.02;;;7.60;99.90;;;;;;5010364;28;20574;-68
2020/12/16 08:53:06;;;;;;;74.65;26.15;;;7.70;99.90;;;;;;5009967;28;20207;-69
2020/12/16 08:55:35;;;;;;;72.82;24.50;;;7.70;99.90;;;;;;4992703;28;20226;-68
2020/12/16 08:58:01;;;;;;;59.53;23.25;;;7.70;99.90;;;;;;4995526;28;20286;-68
2020/12/16 09:00:29;;;;;;;69.07;24.10;;;7.60;99.90;;;;;;4997623;28;20306;-68
2020/12/16 09:03:08;;;;;;;77.25;25.02;;;7.60;99.90;;;;;;5014681;28;20211;-68
2020/12/16 09:05:36;;;;;;;61.65;22.40;;;7.60;99.90;;;;;;4999840;28;20212;-68
2020/12/16 09:08:13;;;;;;;68.20;22.77;;;7.50;99.90;;;;;;4996020;28;20208;-68
2020/12/16 09:10:40;;;;;;;67.57;24.48;;;7.50;99.90;;;;;;4992713;28;20758;-69
2020/12/16 09:13:08;;;;;;;55.03;21.42;;;7.50;99.90;;;;;;4993681;28;20208;-68
2020/12/16 09:15:34;;;;;;;57.53;21.13;;;7.50;99.90;;;;;;4991742;28;20295;-68
2020/12/16 09:18:00;;;;;;;56.35;21.80;;;7.40;99.90;;;;;;4991908;28;20267;-68
2020/12/16 09:20:27;;;;;;;51.53;19.77;;;7.40;99.90;;;;;;4994337;28;20259;-69
2020/12/16 09:22:54;;;;;;;52.67;20.58;;;7.40;99.90;;;;;;4992042;28;20212;-68
2020/12/16 09:25:21;;;;;;;47.58;19.30;;;7.40;99.90;;;;;;4990876;28;20287;-67
2020/12/16 09:27:52;;;;;;;42.03;18.05;;;7.30;99.90;;;;;;4992153;28;20219;-68
2020/12/16 09:30:30;;;;;;;52.63;19.00;;;7.30;99.90;;;;;;4991979;28;20204;-67
2020/12/16 09:32:56;;;;;;;44.67;18.10;;;7.30;99.90;;;;;;4991780;28;20207;-68
2020/12/16 09:35:24;;;;;;;46.15;18.63;;;7.30;99.90;;;;;;4990680;28;20274;-68
2020/12/16 09:37:51;;;;;;;46.47;17.08;;;7.30;99.90;;;;;;4992401;28;20235;-68
2020/12/16 09:40:17;;;;;;;48.45;18.10;;;7.30;99.90;;;;;;4992337;28;20223;-68
2020/12/16 09:42:55;;;;;;;50.03;17.90;;;7.30;99.90;;;;;;5003985;28;20210;-67
2020/12/16 09:45:22;;;;;;;47.03;16.50;;;7.40;99.90;;;;;;5010618;28;20663;-68
2020/12/16 09:47:49;;;;;;;50.78;18.70;;;7.40;99.90;;;;;;4999341;28;20207;-67
2020/12/16 09:50:16;;;;;;;50.85;20.02;;;7.50;99.90;;;;;;4992674;28;20244;-67
2020/12/16 09:52:43;;;;;;;52.15;20.15;;;7.50;99.90;;;;;;5003099;28;20199;-67
2020/12/16 09:55:15;;;;;;;64.78;19.05;;;7.50;99.90;;;;;;5009724;28;20291;-70
2020/12/16 09:57:42;;;;;;;48.58;17.92;;;7.50;99.90;;;;;;5001748;28;20223;-69
2020/12/16 10:00:09;;;;;;;46.53;16.98;;;7.50;99.90;;;;;;4990829;28;20285;-68
2020/12/16 10:02:35;;;;;;;50.38;19.23;;;7.50;99.90;;;;;;5000130;28;20218;-68
2020/12/16 10:05:02;;;;;;;64.43;20.45;;;7.50;99.90;;;;;;5005560;28;20196;-69
2020/12/16 10:07:32;;;;;;;58.30;20.30;;;7.60;99.90;;;;;;4998320;28;20203;-68
2020/12/16 10:09:58;;;;;;;51.83;18.42;;;7.60;99.90;;;;;;5005170;28;20231;-67
2020/12/16 10:12:25;;;;;;;59.65;21.02;;;7.60;99.90;;;;;;4994992;28;20220;-67
2020/12/16 10:14:52;;;;;;;65.68;18.92;;;7.60;99.90;;;;;;4993788;28;20227;-68
2020/12/16 10:17:22;;;;;;;55.30;18.17;;;7.70;99.90;;;;;;4999057;28;20223;-67
2020/12/16 10:19:49;;;;;;;63.35;19.48;;;7.70;99.90;;;;;;5005249;28;20210;-67
2020/12/16 10:22:15;;;;;;;53.30;20.40;;;7.80;99.90;;;;;;5017178;28;20270;-67
2020/12/16 10:24:42;;;;;;;54.88;22.35;;;7.90;99.90;;;;;;4998846;28;20239;-68
2020/12/16 10:27:08;;;;;;;61.38;18.17;;;7.90;99.90;;;;;;5012711;28;20207;-68
2020/12/16 10:29:35;;;;;;;53.33;20.20;;;7.90;99.90;;;;;;5004897;28;20224;-67
2020/12/16 10:32:01;;;;;;;51.28;19.23;;;7.90;99.90;;;;;;5013804;28;20230;-67
2020/12/16 10:34:27;;;;;;;41.80;17.70;;;7.90;99.90;;;;;;5009335;28;20218;-68
2020/12/16 10:36:54;;;;;;;44.40;16.90;;;8.00;99.90;;;;;;5007768;28;20267;-68
2020/12/16 10:39:21;;;;;;;70.13;19.70;;;8.00;99.90;;;;;;4997603;28;20266;-67
2020/12/16 10:41:52;;;;;;;49.97;16.25;;;8.10;99.90;;;;;;5008297;28;20227;-68
2020/12/16 10:44:18;;;;;;;38.38;14.93;;;8.00;99.90;;;;;;5007991;28;20563;-68
2020/12/16 10:46:48;;;;;;;41.92;17.02;;;8.00;99.90;;;;;;5011626;28;20207;-67
2020/12/16 10:49:14;;;;;;;22.02;11.35;;;7.90;99.90;;;;;;5009389;28;20214;-68
2020/12/16 10:51:41;;;;;;;45.53;16.63;;;7.90;99.90;;;;;;4994672;28;20544;-67
2020/12/16 10:54:07;;;;;;;39.53;14.68;;;8.00;99.90;;;;;;4998586;28;20292;-68
2020/12/16 10:56:34;;;;;;;32.65;15.60;;;8.00;99.90;;;;;;5009243;28;20226;-68
2020/12/16 10:59:00;;;;;;;35.25;15.05;;;8.10;99.90;;;;;;5007281;28;20207;-67
2020/12/16 11:01:28;;;;;;;40.97;16.33;;;8.10;99.90;;;;;;5008949;28;20284;-68
2020/12/16 11:03:54;;;;;;;36.63;14.93;;;8.10;99.90;;;;;;5007236;28;20302;-67
2020/12/16 11:06:20;;;;;;;36.17;14.80;;;8.10;99.90;;;;;;5013255;28;20195;-67
2020/12/16 11:08:46;;;;;;;35.67;14.40;;;8.10;99.90;;;;;;4999499;28;20204;-68
2020/12/16 11:11:13;;;;;;;30.80;13.13;;;8.20;99.90;;;;;;4999120;28;20235;-67
2020/12/16 11:13:39;;;;;;;35.88;14.35;;;8.10;99.90;;;;;;4994014;28;20210;-68
2020/12/16 11:16:05;;;;;;;38.72;14.30;;;8.10;99.90;;;;;;4994787;28;20595;-67
2020/12/16 11:18:32;;;;;;;37.55;14.98;;;8.10;99.90;;;;;;5000531;28;20210;-67
2020/12/16 11:20:58;;;;;;;40.33;13.48;;;8.00;99.90;;;;;;4998737;28;20220;-67
2020/12/16 11:23:24;;;;;;;36.17;15.05;;;8.00;99.90;;;;;;4994417;28;20200;-67
2020/12/16 11:25:50;;;;;;;37.72;15.02;;;8.00;99.90;;;;;;4997193;28;20544;-67
2020/12/16 11:28:16;;;;;;;38.85;16.52;;;8.00;99.90;;;;;;5001815;28;20675;-67
2020/12/16 11:30:42;;;;;;;38.83;16.15;;;8.10;99.90;;;;;;5013297;28;20710;-67
2020/12/16 11:33:09;;;;;;;40.15;14.75;;;8.10;99.90;;;;;;5004622;28;20204;-67
2020/12/16 11:35:36;;;;;;;34.83;13.95;;;8.10;99.90;;;;;;5007180;28;20542;-68
2020/12/16 11:38:02;;;;;;;40.20;15.60;;;8.20;99.90;;;;;;5010140;28;20235;-68
2020/12/16 11:40:28;;;;;;;34.15;14.65;;;8.20;99.90;;;;;;4999143;28;20223;-68
2020/12/16 11:42:54;;;;;;;41.55;16.83;;;8.20;99.90;;;;;;5001252;28;20582;-68
2020/12/16 11:45:20;;;;;;;36.45;14.55;;;8.20;99.90;;;;;;5000672;28;20218;-68
2020/12/16 11:47:46;;;;;;;41.80;16.77;;;8.20;99.90;;;;;;5009529;28;20226;-68
2020/12/16 11:50:13;;;;;;;34.00;13.15;;;8.20;99.90;;;;;;5021047;28;20215;-68
2020/12/16 11:52:40;;;;;;;21.00;10.40;;;8.10;99.90;;;;;;5007971;28;20213;-67
2020/12/16 11:55:06;;;;;;;21.33;9.43;;;8.10;99.90;;;;;;5006210;28;20203;-68
2020/12/16 11:57:32;;;;;;;30.33;12.95;;;8.00;99.90;;;;;;5004104;28;20234;-68
2020/12/16 11:59:58;;;;;;;28.55;13.10;;;8.00;99.90;;;;;;5008044;28;20229;-67
2020/12/16 12:02:25;;;;;;;38.55;12.82;;;8.00;99.90;;;;;;4998193;28;20742;-68
2020/12/16 12:04:51;;;;;;;33.70;12.90;;;8.00;99.90;;;;;;5013301;28;20215;-68
2020/12/16 12:07:18;;;;;;;25.38;11.90;;;8.00;99.90;;;;;;5009012;28;20200;-68
2020/12/16 12:09:45;;;;;;;31.75;13.50;;;8.00;99.90;;;;;;4994060;28;20212;-68
2020/12/16 12:12:11;;;;;;;27.55;12.35;;;8.00;99.90;;;;;;4996156;28;20220;-68
2020/12/16 12:14:38;;;;;;;42.90;14.60;;;8.00;99.90;;;;;;4997377;28;20215;-68
2020/12/16 12:17:04;;;;;;;32.45;13.15;;;8.00;99.90;;;;;;4993779;28;20254;-68
2020/12/16 12:19:31;;;;;;;28.40;13.80;;;8.10;99.90;;;;;;4997712;28;20222;-68
2020/12/16 12:21:58;;;;;;;33.13;14.02;;;8.10;99.90;;;;;;5011938;28;20285;-68
2020/12/16 12:24:24;;;;;;;41.30;15.25;;;8.10;99.90;;;;;;5008577;28;20878;-68
2020/12/16 12:26:51;;;;;;;39.97;15.68;;;8.20;99.90;;;;;;5013715;28;20616;-68
2020/12/16 12:29:18;;;;;;;40.17;15.20;;;8.20;99.90;;;;;;4996946;28;20207;-68
2020/12/16 12:31:44;;;;;;;38.22;16.95;;;8.30;99.90;;;;;;4995719;28;20232;-68
2020/12/16 12:34:11;;;;;;;37.80;15.85;;;8.30;99.90;;;;;;5001234;28;20266;-68
2020/12/16 12:36:37;;;;;;;45.47;17.30;;;8.30;99.90;;;;;;5001918;28;20229;-68
2020/12/16 12:39:04;;;;;;;45.58;19.30;;;8.40;99.90;;;;;;4994340;28;20204;-68
2020/12/16 12:41:31;;;;;;;40.83;16.55;;;8.50;99.90;;;;;;4997412;28;20219;-68
2020/12/16 12:43:58;;;;;;;30.60;14.88;;;8.50;99.90;;;;;;5008907;28;20204;-68
2020/12/16 12:46:25;;;;;;;41.97;15.88;;;8.50;99.90;;;;;;5012961;28;20203;-68
2020/12/16 12:48:51;;;;;;;41.15;15.75;;;8.50;99.90;;;;;;5006565;28;20322;-68
2020/12/16 12:51:17;;;;;;;43.72;16.15;;;8.50;99.90;;;;;;5007541;28;20626;-68
2020/12/16 12:53:43;;;;;;;48.85;15.68;;;8.40;99.90;;;;;;5001777;28;20204;-68
2020/12/16 12:56:10;;;;;;;30.45;13.65;;;8.50;99.90;;;;;;5001729;28;20222;-67
2020/12/16 12:58:36;;;;;;;37.40;16.13;;;8.50;99.90;;;;;;5002003;28;20203;-68
2020/12/16 13:01:04;;;;;;;45.15;17.30;;;8.50;99.90;;;;;;5007073;28;20232;-68
2020/12/16 13:03:30;;;;;;;47.58;18.45;;;8.50;99.90;;;;;;5005500;28;20203;-68
2020/12/16 13:05:56;;;;;;;52.40;18.17;;;8.50;99.90;;;;;;5011323;28;20207;-68
2020/12/16 13:08:22;;;;;;;40.50;18.38;;;8.60;99.90;;;;;;5004193;28;20219;-68
2020/12/16 13:10:48;;;;;;;51.63;19.27;;;8.70;99.90;;;;;;5010347;28;20281;-68
2020/12/16 13:13:14;;;;;;;49.75;18.27;;;8.60;99.90;;;;;;5001278;28;20656;-67
2020/12/16 13:15:41;;;;;;;52.63;18.60;;;8.70;99.90;;;;;;5006636;28;20271;-67
2020/12/16 13:18:08;;;;;;;52.97;19.90;;;8.70;99.90;;;;;;4992605;28;20232;-68
2020/12/16 13:20:34;;;;;;;47.28;20.63;;;8.70;99.90;;;;;;5002584;28;20683;-68
2020/12/16 13:23:00;;;;;;;44.30;16.77;;;8.70;99.90;;;;;;4999566;28;20693;-68
2020/12/16 13:25:26;;;;;;;49.75;18.17;;;8.80;99.90;;;;;;5010000;28;20219;-68
2020/12/16 13:27:52;;;;;;;45.78;18.75;;;8.80;99.90;;;;;;5001342;28;20203;-68
2020/12/16 13:30:18;;;;;;;41.72;18.63;;;8.80;99.90;;;;;;4997708;28;20207;-67
2020/12/16 13:32:45;;;;;;;51.38;18.10;;;8.80;99.90;;;;;;4995238;28;20627;-68
2020/12/16 13:35:12;;;;;;;48.65;19.75;;;8.80;99.90;;;;;;5004612;28;20279;-68
2020/12/16 13:37:38;;;;;;;45.53;17.67;;;8.80;99.90;;;;;;4995549;28;20703;-68
2020/12/16 13:40:04;;;;;;;52.30;18.75;;;8.90;99.90;;;;;;4999219;28;20321;-67
2020/12/16 13:42:30;;;;;;;42.00;19.08;;;8.80;99.90;;;;;;5007148;28;20219;-68
2020/12/16 13:44:57;;;;;;;48.47;18.55;;;8.80;99.90;;;;;;5011861;28;20624;-67
2020/12/16 13:47:24;;;;;;;40.92;17.88;;;8.90;99.90;;;;;;4999251;28;20286;-68
2020/12/16 13:49:51;;;;;;;44.60;19.73;;;8.90;99.90;;;;;;5000086;28;20336;-67
2020/12/16 13:52:18;;;;;;;29.60;13.55;;;8.90;99.90;;;;;;4998361;28;20641;-68
2020/12/16 13:54:44;;;;;;;40.55;17.75;;;8.90;99.90;;;;;;4998679;28;20743;-68
2020/12/16 13:57:11;;;;;;;34.00;17.88;;;8.90;99.90;;;;;;5004000;28;20232;-67
2020/12/16 13:59:38;;;;;;;37.47;16.08;;;8.90;99.90;;;;;;4994220;28;20258;-68
2020/12/16 14:02:04;;;;;;;45.38;18.83;;;8.90;99.90;;;;;;4999782;28;20241;-68
2020/12/16 14:04:30;;;;;;;45.47;20.38;;;8.90;99.90;;;;;;4995556;28;20230;-68
2020/12/16 14:06:57;;;;;;;41.13;18.60;;;8.90;99.90;;;;;;5014404;28;20203;-67
2020/12/16 14:09:24;;;;;;;51.70;20.70;;;8.90;99.90;;;;;;4998132;28;20208;-67
2020/12/16 14:11:51;;;;;;;44.28;21.20;;;8.90;99.90;;;;;;5005631;28;20223;-69
2020/12/16 14:14:17;;;;;;;48.28;19.15;;;8.90;99.90;;;;;;5002062;28;20314;-69
2020/12/16 14:16:43;;;;;;;36.97;18.38;;;8.90;99.90;;;;;;5000731;28;20281;-68
2020/12/16 14:19:10;;;;;;;35.58;16.95;;;8.90;99.90;;;;;;5000693;28;20204;-69
2020/12/16 14:21:36;;;;;;;42.90;20.17;;;8.90;99.90;;;;;;5007250;28;20257;-67
2020/12/16 14:24:03;;;;;;;40.67;18.35;;;8.90;99.90;;;;;;5008920;28;20215;-67
2020/12/16 14:26:30;;;;;;;49.17;20.67;;;8.90;99.90;;;;;;5003406;28;20203;-68
2020/12/16 14:28:58;;;;;;;48.83;22.17;;;8.90;99.90;;;;;;5005541;28;20204;-67
2020/12/16 14:31:25;;;;;;;49.83;21.65;;;8.90;99.90;;;;;;4998482;28;20224;-68
2020/12/16 14:33:51;;;;;;;51.17;22.08;;;8.90;99.90;;;;;;5010385;28;20207;-68
2020/12/16 14:36:17;;;;;;;48.67;20.95;;;8.90;99.90;;;;;;5013110;28;20203;-68
2020/12/16 14:38:43;;;;;;;46.42;20.42;;;8.90;99.90;;;;;;5001241;28;20208;-68
2020/12/16 14:41:10;;;;;;;44.92;18.50;;;8.90;99.90;;;;;;5000526;28;20220;-68
2020/12/16 14:43:38;;;;;;;41.47;18.88;;;8.90;99.90;;;;;;4994424;28;20222;-68
2020/12/16 14:46:05;;;;;;;39.15;18.42;;;8.80;99.90;;;;;;5008576;28;20245;-68
2020/12/16 14:48:31;;;;;;;27.25;12.88;;;8.80;99.90;;;;;;5011435;28;20203;-68
2020/12/16 14:50:57;;;;;;;34.60;16.35;;;8.80;99.90;;;;;;5012388;28;20353;-68
2020/12/16 14:53:23;;;;;;;38.80;18.33;;;8.70;99.90;;;;;;4995106;28;20212;-68
2020/12/16 14:55:49;;;;;;;37.40;17.05;;;8.70;99.90;;;;;;4998666;28;20310;-68
2020/12/16 14:58:16;;;;;;;36.58;16.95;;;8.70;99.90;;;;;;5009126;28;20226;-68
2020/12/16 15:00:43;;;;;;;39.67;17.50;;;8.70;99.90;;;;;;5009750;28;20227;-68
2020/12/16 15:03:09;;;;;;;40.45;15.88;;;8.70;99.90;;;;;;5002779;28;20250;-68
2020/12/16 15:05:35;;;;;;;38.00;19.13;;;8.60;99.90;;;;;;5004927;28;20258;-68
2020/12/16 15:08:01;;;;;;;32.53;16.50;;;8.60;99.90;;;;;;4994217;28;20199;-68
2020/12/16 15:10:28;;;;;;;35.17;16.38;;;8.60;99.90;;;;;;5004847;28;20242;-68
2020/12/16 15:12:54;;;;;;;40.83;18.95;;;8.60;99.90;;;;;;5012440;28;20207;-68
2020/12/16 15:15:20;;;;;;;43.92;17.00;;;8.60;99.90;;;;;;5000093;28;20207;-68
2020/12/16 15:17:48;;;;;;;44.17;20.77;;;8.50;99.90;;;;;;5015447;28;20457;-68
2020/12/16 15:20:15;;;;;;;37.15;19.45;;;8.60;99.90;;;;;;5000747;28;20467;-66
2020/12/16 15:22:41;;;;;;;44.92;19.38;;;8.50;99.90;;;;;;4995480;28;20212;-66
2020/12/16 15:25:09;;;;;;;43.30;19.85;;;8.50;99.90;;;;;;5006536;28;20579;-66
2020/12/16 15:27:36;;;;;;;52.13;22.60;;;8.50;99.90;;;;;;5008806;28;20203;-66
2020/12/16 15:30:05;;;;;;;46.78;18.20;;;8.60;99.90;;;;;;4999028;28;20212;-66
2020/12/16 15:32:35;;;;;;;39.20;19.58;;;8.50;99.90;;;;;;4999031;28;20204;-67
2020/12/16 15:35:02;;;;;;;42.65;18.50;;;8.50;99.90;;;;;;5005666;28;20196;-66
2020/12/16 15:37:29;;;;;;;36.25;17.20;;;8.50;99.90;;;;;;5003990;28;20729;-66
2020/12/16 15:39:55;;;;;;;51.20;20.65;;;8.50;99.90;;;;;;5000888;28;20211;-67
2020/12/16 15:42:21;;;;;;;44.53;20.38;;;8.50;99.90;;;;;;5017469;28;20230;-66
2020/12/16 15:44:47;;;;;;;51.83;22.25;;;8.50;99.90;;;;;;5013119;28;20210;-66
2020/12/16 15:47:13;;;;;;;42.65;20.60;;;8.60;99.90;;;;;;5002193;28;20200;-66
2020/12/16 15:49:39;;;;;;;52.72;21.58;;;8.60;99.90;;;;;;5000940;28;20208;-69
2020/12/16 15:52:06;;;;;;;49.47;22.42;;;8.60;99.90;;;;;;5003131;28;20223;-66
2020/12/16 15:54:32;;;;;;;46.13;19.75;;;8.60;99.90;;;;;;5012189;28;20226;-66
2020/12/16 15:56:58;;;;;;;53.17;22.83;;;8.60;99.90;;;;;;4995454;28;20224;-67
2020/12/16 15:59:26;;;;;;;57.45;23.30;;;8.60;99.90;;;;;;5005923;28;20207;-66
2020/12/16 16:01:52;;;;;;;52.42;22.95;;;8.70;99.90;;;;;;4994664;28;20231;-67
2020/12/16 16:04:18;;;;;;;45.25;22.20;;;8.70;99.90;;;;;;5002841;28;20238;-66
2020/12/16 16:06:45;;;;;;;46.83;21.67;;;8.70;99.90;;;;;;4994266;28;20212;-66
2020/12/16 16:09:12;;;;;;;46.88;20.73;;;8.70;99.90;;;;;;5004864;28;20226;-66
2020/12/16 16:11:38;;;;;;;55.70;23.65;;;8.70;99.90;;;;;;5013584;28;20223;-66
2020/12/16 16:14:04;;;;;;;48.40;21.33;;;8.70;99.90;;;;;;5006700;28;20567;-66
2020/12/16 16:16:32;;;;;;;52.25;23.60;;;8.70;99.90;;;;;;5007918;28;20579;-66
2020/12/16 16:18:58;;;;;;;47.67;23.90;;;8.70;99.90;;;;;;4998691;28;20204;-67
2020/12/16 16:21:25;;;;;;;47.72;23.20;;;8.80;99.90;;;;;;5013714;28;20302;-66
2020/12/16 16:23:51;;;;;;;52.55;24.23;;;8.80;99.90;;;;;;5010488;28;20215;-66
2020/12/16 16:26:18;;;;;;;52.42;21.83;;;8.80;99.90;;;;;;5011722;28;20539;-66
2020/12/16 16:28:44;;;;;;;54.40;24.77;;;8.80;99.90;;;;;;5006339;28;20200;-67
2020/12/16 16:31:10;;;;;;;48.28;20.83;;;8.80;99.90;;;;;;4993753;28;20617;-66
2020/12/16 16:33:37;;;;;;;52.33;24.35;;;8.80;99.90;;;;;;5000412;28;20207;-66
2020/12/16 16:36:06;;;;;;;51.75;24.65;;;8.80;99.90;;;;;;4996585;28;20215;-66
2020/12/16 16:38:32;;;;;;;24.83;14.05;;;8.80;99.90;;;;;;4998265;28;20312;-66
2020/12/16 16:40:58;;;;;;;40.15;20.35;;;8.80;99.90;;;;;;5008751;28;20259;-66
2020/12/16 16:43:25;;;;;;;41.38;18.48;;;8.80;99.90;;;;;;4992506;28;20208;-66
2020/12/16 16:45:51;;;;;;;44.17;19.60;;;8.90;99.90;;;;;;4992654;28;20211;-66
2020/12/16 16:48:18;;;;;;;40.78;19.48;;;8.80;99.90;;;;;;5010867;28;20218;-66
2020/12/16 16:50:44;;;;;;;44.97;23.05;;;8.80;99.90;;;;;;4997264;28;20240;-66
2020/12/16 16:53:10;;;;;;;48.00;22.73;;;8.80;99.90;;;;;;4993219;28;20211;-67
2020/12/16 16:55:37;;;;;;;44.72;19.60;;;8.90;99.90;;;;;;5000189;28;20266;-67
2020/12/16 16:58:04;;;;;;;36.13;17.63;;;8.80;99.90;;;;;;4996178;28;20223;-67
2020/12/16 17:00:31;;;;;;;53.92;24.40;;;8.90;99.90;;;;;;5003569;28;20307;-67
2020/12/16 17:02:57;;;;;;;39.97;19.40;;;8.90;99.90;;;;;;5000847;28;20192;-67
2020/12/16 17:05:23;;;;;;;47.15;23.67;;;8.90;99.90;;;;;;5010795;28;20203;-67
2020/12/16 17:07:50;;;;;;;46.45;22.75;;;8.90;99.90;;;;;;4993373;28;20601;-67
2020/12/16 17:10:16;;;;;;;30.67;16.42;;;9.00;99.90;;;;;;4997662;28;20211;-67
2020/12/16 17:12:43;;;;;;;43.88;23.65;;;8.90;99.90;;;;;;4998129;28;20294;-66
2020/12/16 17:15:11;;;;;;;47.65;24.35;;;9.00;99.90;;;;;;5007625;28;20207;-67
2020/12/16 17:17:39;;;;;;;42.05;22.30;;;9.00;99.90;;;;;;4994966;28;20247;-67
2020/12/16 17:20:06;;;;;;;34.17;19.70;;;9.00;99.90;;;;;;5010080;28;20203;-67
2020/12/16 17:22:33;;;;;;;48.20;23.83;;;9.00;99.90;;;;;;5004499;28;20582;-67
2020/12/16 17:24:59;;;;;;;45.50;23.85;;;9.00;99.90;;;;;;4994272;28;20212;-67
2020/12/16 17:27:25;;;;;;;43.83;22.50;;;9.00;99.90;;;;;;5006255;28;20196;-67
2020/12/16 17:29:51;;;;;;;47.30;23.48;;;9.00;99.90;;;;;;4992371;28;20314;-67
2020/12/16 17:32:18;;;;;;;43.38;21.23;;;9.10;99.90;;;;;;4998379;28;20219;-67
2020/12/16 17:34:45;;;;;;;44.55;20.65;;;9.10;99.90;;;;;;4997805;28;20208;-67
2020/12/16 17:37:12;;;;;;;36.05;16.73;;;9.10;99.90;;;;;;5003707;28;20215;-67